Atlantic Island — C4VM2 — position and weather

sailwx.info

Track history (hours):
 
Tides and Currents Weather Stations Pressure Air Temp Water Temp Dewpoint Dewpoint Depression Visibility Wind Speed Wind Dir Waves Ship Positions

Atlantic Island

Last reported at 2016-May-28 15:30 UTC. Time now 2016-May-28 20:40 UTC.
Position N 35°58' W 005°35'.

Length 95 m; draft 5.4 m.

Type: Cargo ship. MMSI: 210754000.

Date/timePositionNaut miles runAvg speedWind from/ knotsBaromVisibWave heightAir tempDewpointWater temp
2016-May-28 15:30N 35°58' W 005°35'7 7.2
2016-May-28 14:33N 35°59' W 005°27'6 6.4
2016-May-28 13:34N 36°01' W 005°19'227 8.9
2016-May-27 12:11N 37°20' W 000°54'710.1
2016-May-27 11:32N 37°25' W 000°49'1110.1
2016-May-27 10:29N 37°32' W 000°38'9 9.9
2016-May-27 09:33N 37°38' W 000°30'1010.1
2016-May-27 08:31N 37°47' W 000°23'1010.0
2016-May-27 07:31N 37°56' W 000°16'3210.4
2016-May-27 04:27N 38°23' E 000°06'74 2.1
2016-May-25 17:29N 39°35' W 000°12'1010.3
2016-May-25 16:33N 39°26' W 000°16'2 2.3
2016-May-25 15:31N 39°27' W 000°19'0 0.0
2016-May-25 14:31N 39°27' W 000°19'0 0.0
2016-May-25 13:31N 39°27' W 000°19'0 0.0
2016-May-25 12:31N 39°27' W 000°19'0 0.0
2016-May-25 11:31N 39°27' W 000°19'0 0.0
2016-May-25 10:31N 39°27' W 000°19'0 0.0
2016-May-25 09:31N 39°27' W 000°19'0 0.0
2016-May-25 08:31N 39°27' W 000°19'0 0.0
2016-May-25 07:31N 39°27' W 000°19'0 0.0
2016-May-25 06:31N 39°27' W 000°19'0 0.0
2016-May-25 05:31N 39°27' W 000°19'0 0.0
2016-May-25 04:31N 39°27' W 000°19'0 0.0
2016-May-25 03:31N 39°27' W 000°19'0 0.0
2016-May-25 02:31N 39°27' W 000°19'0 0.0
2016-May-25 01:31N 39°27' W 000°19'0 0.0
2016-May-25 00:31N 39°27' W 000°19'0 0.0
2016-May-24 23:31N 39°27' W 000°19'0 0.0
2016-May-24 22:31N 39°27' W 000°19'0 0.0
2016-May-24 21:34N 39°27' W 000°19'0 0.0
2016-May-24 20:33N 39°27' W 000°19'0 0.0
2016-May-24 19:33N 39°27' W 000°19'0 0.0
2016-May-24 18:33N 39°27' W 000°19'0 0.0
2016-May-24 17:33N 39°27' W 000°19'0 0.0
2016-May-24 16:33N 39°27' W 000°19'0 0.0
2016-May-24 15:33N 39°27' W 000°19'0 0.0
2016-May-24 14:33N 39°27' W 000°19'0 0.0
2016-May-24 13:30N 39°27' W 000°19'0 0.0
2016-May-24 12:33N 39°27' W 000°19'0 0.0
2016-May-24 11:33N 39°27' W 000°19'0 0.0
2016-May-24 10:33N 39°27' W 000°19'0 0.0
2016-May-24 09:33N 39°27' W 000°19'0 0.0
2016-May-24 08:33N 39°27' W 000°19'0 0.0
2016-May-24 07:33N 39°27' W 000°19'0 0.0
2016-May-24 06:33N 39°27' W 000°19'0 0.0
2016-May-24 05:33N 39°27' W 000°19'0 0.0
2016-May-24 04:33N 39°27' W 000°19'0 0.0
2016-May-24 03:33N 39°27' W 000°19'0 0.0
2016-May-24 02:33N 39°27' W 000°19'0 0.0
2016-May-24 01:33N 39°27' W 000°19'0 0.0
2016-May-24 00:33N 39°27' W 000°19'0 0.0
2016-May-23 23:33N 39°27' W 000°19'0 0.0
2016-May-23 22:33N 39°27' W 000°19'0 0.0
2016-May-23 21:33N 39°27' W 000°19'0 0.0
2016-May-23 20:33N 39°27' W 000°19'94 6.5
2016-May-23 06:08N 37°52' W 000°14'11 6.8
2016-May-23 04:33N 37°44' W 000°22'6 6.5
2016-May-23 03:33N 37°38' W 000°27'7 5.8
2016-May-23 02:23N 37°33' W 000°31'11 5.9
2016-May-23 00:31N 37°25' W 000°42'6 6.6
2016-May-22 23:33N 37°21' W 000°48'8 7.0
2016-May-22 22:27N 37°16' W 000°55'224 7.0
2016-May-21 14:33N 35°58' W 005°17'1010.0
2016-May-21 13:33N 35°57' W 005°29'104 3.4
2016-May-20 07:03N 37°13' W 006°57'0 0.0
2016-May-20 06:30N 37°13' W 006°57'0 0.0
2016-May-20 05:24N 37°13' W 006°57'0 0.0
2016-May-20 04:33N 37°13' W 006°57'0 0.0
2016-May-20 03:33N 37°13' W 006°57'0 0.0
2016-May-20 02:33N 37°13' W 006°57'0 0.0
2016-May-20 01:33N 37°13' W 006°57'0 0.0
2016-May-20 00:33N 37°13' W 006°57'15 0.8
2016-May-19 05:32N 37°00' W 006°49'3210.4
2016-May-19 02:29N 36°28' W 006°51'  
Track history (hours):
 
Tides and Currents Weather Stations Pressure Air Temp Water Temp Dewpoint Dewpoint Depression Visibility Wind Speed Wind Dir Waves Ship Positions

Atlantic Island

Last reported at 2016-May-28 15:30 UTC. Time now 2016-May-28 20:40 UTC.
Position N 35°58' W 005°35'.

Length 95 m; draft 5.4 m.

Type: Cargo ship. MMSI: 210754000.

Date/timePositionNaut miles runAvg speedWind from/ knotsBaromVisibWave heightAir tempDewpointWater temp
2016-May-28 15:30N 35°58' W 005°35'7 7.2
2016-May-28 14:33N 35°59' W 005°27'6 6.4
2016-May-28 13:34N 36°01' W 005°19'227 8.9
2016-May-27 12:11N 37°20' W 000°54'710.1
2016-May-27 11:32N 37°25' W 000°49'1110.1
2016-May-27 10:29N 37°32' W 000°38'9 9.9
2016-May-27 09:33N 37°38' W 000°30'1010.1
2016-May-27 08:31N 37°47' W 000°23'1010.0
2016-May-27 07:31N 37°56' W 000°16'3210.4
2016-May-27 04:27N 38°23' E 000°06'74 2.1
2016-May-25 17:29N 39°35' W 000°12'1010.3
2016-May-25 16:33N 39°26' W 000°16'2 2.3
2016-May-25 15:31N 39°27' W 000°19'0 0.0
2016-May-25 14:31N 39°27' W 000°19'0 0.0
2016-May-25 13:31N 39°27' W 000°19'0 0.0
2016-May-25 12:31N 39°27' W 000°19'0 0.0
2016-May-25 11:31N 39°27' W 000°19'0 0.0
2016-May-25 10:31N 39°27' W 000°19'0 0.0
2016-May-25 09:31N 39°27' W 000°19'0 0.0
2016-May-25 08:31N 39°27' W 000°19'0 0.0
2016-May-25 07:31N 39°27' W 000°19'0 0.0
2016-May-25 06:31N 39°27' W 000°19'0 0.0
2016-May-25 05:31N 39°27' W 000°19'0 0.0
2016-May-25 04:31N 39°27' W 000°19'0 0.0
2016-May-25 03:31N 39°27' W 000°19'0 0.0
2016-May-25 02:31N 39°27' W 000°19'0 0.0
2016-May-25 01:31N 39°27' W 000°19'0 0.0
2016-May-25 00:31N 39°27' W 000°19'0 0.0
2016-May-24 23:31N 39°27' W 000°19'0 0.0
2016-May-24 22:31N 39°27' W 000°19'0 0.0
2016-May-24 21:34N 39°27' W 000°19'0 0.0
2016-May-24 20:33N 39°27' W 000°19'0 0.0
2016-May-24 19:33N 39°27' W 000°19'0 0.0
2016-May-24 18:33N 39°27' W 000°19'0 0.0
2016-May-24 17:33N 39°27' W 000°19'0 0.0
2016-May-24 16:33N 39°27' W 000°19'0 0.0
2016-May-24 15:33N 39°27' W 000°19'0 0.0
2016-May-24 14:33N 39°27' W 000°19'0 0.0
2016-May-24 13:30N 39°27' W 000°19'0 0.0
2016-May-24 12:33N 39°27' W 000°19'0 0.0
2016-May-24 11:33N 39°27' W 000°19'0 0.0
2016-May-24 10:33N 39°27' W 000°19'0 0.0
2016-May-24 09:33N 39°27' W 000°19'0 0.0
2016-May-24 08:33N 39°27' W 000°19'0 0.0
2016-May-24 07:33N 39°27' W 000°19'0 0.0
2016-May-24 06:33N 39°27' W 000°19'0 0.0
2016-May-24 05:33N 39°27' W 000°19'0 0.0
2016-May-24 04:33N 39°27' W 000°19'0 0.0
2016-May-24 03:33N 39°27' W 000°19'0 0.0
2016-May-24 02:33N 39°27' W 000°19'0 0.0
2016-May-24 01:33N 39°27' W 000°19'0 0.0
2016-May-24 00:33N 39°27' W 000°19'0 0.0
2016-May-23 23:33N 39°27' W 000°19'0 0.0
2016-May-23 22:33N 39°27' W 000°19'0 0.0
2016-May-23 21:33N 39°27' W 000°19'0 0.0
2016-May-23 20:33N 39°27' W 000°19'94 6.5
2016-May-23 06:08N 37°52' W 000°14'11 6.8
2016-May-23 04:33N 37°44' W 000°22'6 6.5
2016-May-23 03:33N 37°38' W 000°27'7 5.8
2016-May-23 02:23N 37°33' W 000°31'11 5.9
2016-May-23 00:31N 37°25' W 000°42'6 6.6
2016-May-22 23:33N 37°21' W 000°48'8 7.0
2016-May-22 22:27N 37°16' W 000°55'224 7.0
2016-May-21 14:33N 35°58' W 005°17'1010.0
2016-May-21 13:33N 35°57' W 005°29'104 3.4
2016-May-20 07:03N 37°13' W 006°57'0 0.0
2016-May-20 06:30N 37°13' W 006°57'0 0.0
2016-May-20 05:24N 37°13' W 006°57'0 0.0
2016-May-20 04:33N 37°13' W 006°57'0 0.0
2016-May-20 03:33N 37°13' W 006°57'0 0.0
2016-May-20 02:33N 37°13' W 006°57'0 0.0
2016-May-20 01:33N 37°13' W 006°57'0 0.0
2016-May-20 00:33N 37°13' W 006°57'15 0.8
2016-May-19 05:32N 37°00' W 006°49'3210.4
2016-May-19 02:29N 36°28' W 006°51'  

Dump ship's entire track history